메인 페이지
METAR-TAF:

METAR-TAF

공항 :

Tingo María, 페루

위도: 09-17-15S, 경도: 076-00-18W, 고도: 654m

METAR: 누락

시각: 20:22 (01:22 UTC)

예보

예보는 8 시간 22분 전, 17:00시(UTC)에 발표되었습니다.
예보 대상 시간: 24일 18시부터 25일 18시까지 (UTC)
북동6kt
시정 10km 이상
고도 4000ft 상공 구름 보통
고도 10000ft 상공 구름 많음
25일 0400시부터 (UTC)
3kt
시정: 4000m
고도 800ft 상공 구름 보통
고도 7000ft 상공 흐림
비, 박무
일시적
25일 12시부터 25일 14시까지 (UTC)
시정: 2000m
고도 500ft 상공 구름 많음
고도 5000ft 상공 흐림
전환 중
25일 15시부터 25일 17시까지 (UTC)
시정: 8000m
24일 1800시부터 (UTC)
북동6kt
시정 10km 이상
고도 4000ft 상공 구름 보통
고도 10000ft 상공 구름 많음

TAF: SPGM 241700Z 2418/2518 05006KT 9999 SCT040 BKN100 TX29/2418Z TN20/2510Z FM250400 19003KT 4000 RA BR SCT008 OVC070 TEMPO 2512/2514 2000 BKN005 OVC050 BECMG 2515/2517 8000 NSW FM241800 05006KT 9999 SCT040 BKN100

4,000개 이상의 공항 관측 자료 및 예보 (METAR 및 TAF 보고).

지도상에서 검색 가능한 기상관측소가 노란 점과 빨간 점으로 표시되어 있습니다.

기상관측소 명을 보려면 표시 위로 마우스를 이동하세요.

날씨 관측과 예보를 보려면 클릭하세요.

지도 변경 : 확대하려면 엑스 표시가 있는 녹색 버튼, 축소하려면 빼기 표시가 있는 녹색 버튼, 다음 페이지의 지도를 보려면 녹색 화살표를 클릭하세요.


METAR-TAF: